New Paris, Indiana
Current Conditions -  °F | °C
As of 10:53 PM on Friday 19 Dec 2014 (Local Time) from KGSH Reporting Station
Overcast Overcast  
Wind Chill: -3°   Ceiling: 3200
Heat Index: -3°   Visibility: 9mi
Dew Point: -5°   Wind: 3mph
Humidity: 85%   Direction: 80°E
Pressure: 30.26"   Gusts: NA
Location:  41.5°N, 85.83°W
Report Text: KGSH 200353Z AUTO 08003KT 9SM OVC032 M03/M05 A3026 RMK AO2 SLP257 T10281050
Loading
Personal Weather Stations






























Interactive Weather Map New forecast layout! Learn more

10-Day Weather Forecast

Advertisements
Track Severe Weather on mobile